createdAt,value
2022-07-27T00:01:52.085Z,93.50
2022-07-27T00:04:22.262Z,93.60
2022-07-27T00:06:50.453Z,93.80
2022-07-27T00:09:19.659Z,93.70
2022-07-27T00:11:47.046Z,93.80
2022-07-27T00:14:14.659Z,93.80
2022-07-27T00:16:42.042Z,93.80
2022-07-27T00:19:10.109Z,93.90
2022-07-27T00:21:38.761Z,94.00
2022-07-27T00:24:13.296Z,94.00
2022-07-27T00:26:40.456Z,94.00
2022-07-27T00:29:08.207Z,94.10
2022-07-27T00:31:35.525Z,94.10
2022-07-27T00:34:02.974Z,94.20
2022-07-27T00:36:30.137Z,94.20
2022-07-27T00:38:57.219Z,94.10
2022-07-27T00:41:24.509Z,94.00
2022-07-27T00:43:56.578Z,94.10
2022-07-27T00:46:24.895Z,94.10
2022-07-27T00:48:53.438Z,94.20
2022-07-27T00:51:21.616Z,94.20
2022-07-27T00:53:51.327Z,94.20
2022-07-27T00:56:18.979Z,94.20
2022-07-27T00:58:49.624Z,94.30
2022-07-27T01:01:19.140Z,94.40
2022-07-27T01:03:46.477Z,94.40
2022-07-27T01:06:16.169Z,94.40
2022-07-27T01:08:43.845Z,94.40
2022-07-27T01:11:11.818Z,94.50
2022-07-27T01:13:38.941Z,94.60
2022-07-27T01:16:07.730Z,94.60
2022-07-27T01:18:38.031Z,94.60
2022-07-27T01:21:07.647Z,94.60
2022-07-27T01:23:35.552Z,94.80
2022-07-27T01:26:03.783Z,94.70
2022-07-27T01:28:31.045Z,94.80
2022-07-27T01:30:58.350Z,94.90
2022-07-27T01:33:28.372Z,94.90
2022-07-27T01:35:56.693Z,94.90
2022-07-27T01:38:24.027Z,94.90
2022-07-27T01:40:52.880Z,95.00
2022-07-27T01:43:21.255Z,94.90
2022-07-27T01:45:49.281Z,95.00
2022-07-27T01:48:16.534Z,95.00
2022-07-27T01:50:43.737Z,95.00
2022-07-27T01:53:14.776Z,95.00
2022-07-27T01:55:42.104Z,95.10
2022-07-27T01:58:09.714Z,95.20
2022-07-27T02:00:37.268Z,95.20
2022-07-27T02:03:06.139Z,95.20
2022-07-27T02:05:33.574Z,95.30
2022-07-27T02:08:00.843Z,95.30
2022-07-27T02:10:28.136Z,95.40
2022-07-27T02:12:55.379Z,95.40
2022-07-27T02:15:25.661Z,95.40
2022-07-27T02:17:54.215Z,95.50
2022-07-27T02:20:24.224Z,95.40
2022-07-27T02:22:52.099Z,95.50
2022-07-27T02:25:19.657Z,95.50
2022-07-27T02:27:47.734Z,95.50
2022-07-27T02:30:15.168Z,95.60
2022-07-27T02:32:45.424Z,95.60
2022-07-27T02:35:18.717Z,95.70
2022-07-27T02:37:48.649Z,95.70
2022-07-27T02:40:17.536Z,95.70
2022-07-27T02:42:48.140Z,95.80
2022-07-27T02:45:16.005Z,95.80
2022-07-27T02:47:44.470Z,95.90
2022-07-27T02:50:11.599Z,95.90
2022-07-27T02:52:39.104Z,95.90
2022-07-27T02:55:07.308Z,95.90
2022-07-27T02:57:37.797Z,95.90
2022-07-27T03:00:08.153Z,95.80
2022-07-27T03:02:35.594Z,95.90
2022-07-27T03:05:04.903Z,95.90
2022-07-27T03:07:32.606Z,95.90
2022-07-27T03:09:59.767Z,96.00
2022-07-27T03:12:26.968Z,96.00
2022-07-27T03:14:54.176Z,96.00
2022-07-27T03:17:21.436Z,96.00
2022-07-27T03:19:49.905Z,96.10
2022-07-27T03:22:17.444Z,96.00
2022-07-27T03:24:44.758Z,96.10
2022-07-27T03:27:11.927Z,96.10
2022-07-27T03:29:39.484Z,96.10
2022-07-27T03:32:06.939Z,96.20
2022-07-27T03:34:34.075Z,96.20
2022-07-27T03:37:01.365Z,96.20
2022-07-27T03:39:28.682Z,96.30
2022-07-27T03:41:55.841Z,96.30
2022-07-27T03:44:23.218Z,96.40
2022-07-27T03:46:50.364Z,96.40
2022-07-27T03:49:17.688Z,96.40
2022-07-27T03:51:45.051Z,96.40
2022-07-27T03:54:12.862Z,96.40
2022-07-27T03:56:40.078Z,96.50
2022-07-27T03:59:07.263Z,96.40
2022-07-27T04:01:34.588Z,96.60
2022-07-27T04:04:02.061Z,96.60
2022-07-27T04:06:29.384Z,96.60
2022-07-27T04:09:08.082Z,96.70
2022-07-27T04:11:43.597Z,96.80
2022-07-27T04:14:18.344Z,96.70
2022-07-27T04:16:45.744Z,96.80
2022-07-27T04:19:13.692Z,96.80
2022-07-27T04:21:41.415Z,96.90
2022-07-27T04:24:09.008Z,96.80
2022-07-27T04:26:36.983Z,96.80
2022-07-27T04:29:04.468Z,96.90
2022-07-27T04:31:31.991Z,96.90
2022-07-27T04:33:59.120Z,96.90
2022-07-27T04:36:26.700Z,96.90
2022-07-27T04:38:53.990Z,96.90
2022-07-27T04:41:21.163Z,97.00
2022-07-27T04:43:48.480Z,97.00
2022-07-27T04:46:15.810Z,97.00
2022-07-27T04:48:49.415Z,97.10
2022-07-27T04:51:18.478Z,97.10
2022-07-27T04:53:53.702Z,97.10
2022-07-27T04:56:27.426Z,97.10
2022-07-27T04:58:55.342Z,97.10
2022-07-27T05:01:23.366Z,97.10
2022-07-27T05:03:51.079Z,97.10
2022-07-27T05:06:18.699Z,97.10
2022-07-27T05:08:45.850Z,97.10
2022-07-27T05:11:13.057Z,97.00
2022-07-27T05:13:40.611Z,97.10
2022-07-27T05:16:11.510Z,97.10
2022-07-27T05:18:39.223Z,97.40
2022-07-27T05:21:07.173Z,97.20
2022-07-27T05:23:34.774Z,97.20
2022-07-27T05:26:02.689Z,97.20
2022-07-27T05:28:30.264Z,97.30
2022-07-27T05:30:57.488Z,97.20
2022-07-27T05:33:25.624Z,97.30
2022-07-27T05:35:52.920Z,97.20
2022-07-27T05:38:20.222Z,97.30
2022-07-27T05:40:47.746Z,97.30
2022-07-27T05:43:14.846Z,97.60
2022-07-27T05:45:42.092Z,97.20
2022-07-27T05:48:09.585Z,97.30
2022-07-27T05:50:37.109Z,97.30
2022-07-27T05:53:04.384Z,97.30
2022-07-27T05:55:31.619Z,97.30
2022-07-27T05:57:58.864Z,97.40
2022-07-27T06:00:26.186Z,97.30
2022-07-27T06:02:53.520Z,97.40
2022-07-27T06:05:20.722Z,97.40
2022-07-27T06:08:00.424Z,97.50
2022-07-27T06:10:32.430Z,97.40
2022-07-27T06:13:01.442Z,97.60
2022-07-27T06:15:28.709Z,97.40
2022-07-27T06:17:55.998Z,97.20
2022-07-27T06:20:24.583Z,97.00
2022-07-27T06:22:54.570Z,97.00
2022-07-27T06:25:23.051Z,96.90
2022-07-27T06:28:01.577Z,96.80
2022-07-27T06:30:29.023Z,96.60
2022-07-27T06:32:57.877Z,96.20
2022-07-27T06:35:26.590Z,97.30
2022-07-27T06:37:54.444Z,96.00
2022-07-27T06:40:21.896Z,95.30
2022-07-27T06:42:49.308Z,94.70
2022-07-27T06:45:16.800Z,94.70
2022-07-27T06:47:49.784Z,94.60
2022-07-27T06:50:21.554Z,94.00
2022-07-27T06:52:49.603Z,94.60
2022-07-27T06:55:16.998Z,95.10
2022-07-27T06:57:44.362Z,93.90
2022-07-27T07:00:12.198Z,91.60
2022-07-27T07:02:50.368Z,91.60
2022-07-27T07:05:17.561Z,90.80
2022-07-27T07:07:44.695Z,92.30
2022-07-27T07:10:12.021Z,92.50
2022-07-27T07:12:39.113Z,92.10
2022-07-27T07:15:07.975Z,91.10
2022-07-27T07:17:35.275Z,87.50
2022-07-27T07:20:03.888Z,87.00
2022-07-27T07:22:31.043Z,84.60
2022-07-27T07:25:02.602Z,84.50
2022-07-27T07:27:30.624Z,84.00
2022-07-27T07:29:57.980Z,78.60
2022-07-27T07:32:28.889Z,80.40
2022-07-27T07:35:01.352Z,78.60
2022-07-27T07:37:33.521Z,79.40
2022-07-27T07:40:18.788Z,74.30
2022-07-27T07:42:54.514Z,75.30
2022-07-27T07:45:22.782Z,75.80
2022-07-27T07:47:50.926Z,74.30
2022-07-27T07:50:19.083Z,74.40
2022-07-27T07:52:48.550Z,75.40
2022-07-27T07:55:18.954Z,76.00
2022-07-27T07:57:46.352Z,75.50
2022-07-27T08:00:14.073Z,76.50
2022-07-27T08:02:47.952Z,77.40
2022-07-27T08:05:16.580Z,77.10
2022-07-27T08:07:44.855Z,75.10
2022-07-27T08:10:14.019Z,76.20
2022-07-27T08:12:43.903Z,76.00
2022-07-27T08:15:13.799Z,77.10
2022-07-27T08:17:42.612Z,76.80
2022-07-27T08:20:10.908Z,76.20
2022-07-27T08:22:38.101Z,76.30
2022-07-27T08:25:05.940Z,76.20
2022-07-27T08:27:39.098Z,76.10
2022-07-27T08:30:09.805Z,77.30
2022-07-27T08:32:55.016Z,77.10
2022-07-27T08:35:22.758Z,76.70
2022-07-27T08:37:50.759Z,77.60
2022-07-27T08:43:08.148Z,78.20
2022-07-27T08:45:37.286Z,79.00
2022-07-27T08:48:05.286Z,80.00
2022-07-27T08:50:34.970Z,79.40
2022-07-27T08:53:11.584Z,77.20
2022-07-27T08:55:41.831Z,78.20
2022-07-27T08:58:10.632Z,77.10
2022-07-27T09:00:40.133Z,78.10
2022-07-27T09:03:07.957Z,78.40
2022-07-27T09:05:42.516Z,77.00
2022-07-27T09:08:10.959Z,76.20
2022-07-27T09:10:38.483Z,77.10
2022-07-27T09:13:23.092Z,75.70
2022-07-27T09:18:41.285Z,74.60
2022-07-27T09:21:20.879Z,75.40
2022-07-27T09:24:23.349Z,74.60
2022-07-27T09:27:05.746Z,73.50
2022-07-27T09:29:36.653Z,74.80
2022-07-27T09:32:15.818Z,73.10
2022-07-27T09:34:43.935Z,74.20
2022-07-27T09:37:12.347Z,74.20
2022-07-27T09:39:39.549Z,74.10
2022-07-27T09:42:52.478Z,74.30
2022-07-27T09:45:01.945Z,73.70
2022-07-27T09:47:31.053Z,74.40
2022-07-27T09:50:17.951Z,74.50
2022-07-27T09:52:45.646Z,74.00
2022-07-27T09:55:13.090Z,74.70
2022-07-27T09:57:57.797Z,75.00
2022-07-27T10:00:26.280Z,74.10
2022-07-27T10:02:55.123Z,75.00
2022-07-27T10:05:23.476Z,74.80
2022-07-27T10:07:53.323Z,75.40
2022-07-27T10:10:21.750Z,75.30
2022-07-27T10:12:54.744Z,75.20
2022-07-27T10:15:23.789Z,74.50
2022-07-27T10:18:07.595Z,73.80
2022-07-27T10:20:39.543Z,75.30
2022-07-27T10:23:07.340Z,73.80
2022-07-27T10:25:37.931Z,73.70
2022-07-27T10:28:19.319Z,71.20
2022-07-27T10:30:52.237Z,71.00
2022-07-27T10:33:44.676Z,71.30
2022-07-27T10:36:17.266Z,71.00
2022-07-27T10:38:53.144Z,71.80
2022-07-27T10:41:23.160Z,70.70
2022-07-27T10:44:10.947Z,71.00
2022-07-27T10:46:53.732Z,70.60
2022-07-27T10:49:30.530Z,72.00
2022-07-27T10:51:59.207Z,72.20
2022-07-27T10:54:36.775Z,73.00
2022-07-27T10:57:07.025Z,72.10
2022-07-27T11:00:06.804Z,72.60
2022-07-27T11:02:42.134Z,72.20
2022-07-27T11:05:48.423Z,73.10
2022-07-27T11:08:47.361Z,73.20
2022-07-27T11:10:48.278Z,73.20
2022-07-27T11:13:20.375Z,73.70
2022-07-27T11:15:59.715Z,73.90
2022-07-27T11:18:39.052Z,74.30
2022-07-27T11:21:30.287Z,74.40
2022-07-27T11:24:00.978Z,74.30
2022-07-27T11:26:29.995Z,74.40
2022-07-27T11:28:57.144Z,73.30
2022-07-27T11:31:54.721Z,74.20
2022-07-27T11:34:14.174Z,75.20
2022-07-27T11:36:45.565Z,75.50
2022-07-27T11:39:15.175Z,75.40
2022-07-27T11:44:31.849Z,73.20
2022-07-27T11:47:02.105Z,74.00
2022-07-27T11:49:31.664Z,74.70
2022-07-27T11:52:07.347Z,74.40
2022-07-27T11:54:35.933Z,73.20
2022-07-27T11:57:05.854Z,74.40
2022-07-27T11:59:37.572Z,73.10
2022-07-27T12:02:09.863Z,73.20
2022-07-27T12:04:39.880Z,72.60
2022-07-27T12:07:44.474Z,71.00
2022-07-27T12:10:11.778Z,72.90
2022-07-27T12:12:38.903Z,72.40
2022-07-27T12:15:45.902Z,72.60
2022-07-27T12:18:07.756Z,69.90
2022-07-27T12:20:36.713Z,71.80
2022-07-27T12:23:06.900Z,71.10
2022-07-27T12:25:35.224Z,71.90
2022-07-27T12:28:05.353Z,72.40
2022-07-27T12:30:32.452Z,71.50
2022-07-27T12:33:00.784Z,71.40
2022-07-27T12:35:46.678Z,72.00
2022-07-27T12:38:14.656Z,72.80
2022-07-27T12:40:49.963Z,72.20
2022-07-27T12:43:20.193Z,73.30
2022-07-27T12:45:53.499Z,70.50
2022-07-27T12:48:27.386Z,71.30
2022-07-27T12:51:04.284Z,72.20
2022-07-27T12:53:32.672Z,71.30
2022-07-27T12:56:04.507Z,70.10
2022-07-27T12:58:32.572Z,69.60
2022-07-27T13:00:59.971Z,70.30
2022-07-27T13:03:27.327Z,70.90
2022-07-27T13:05:54.448Z,71.90
2022-07-27T13:08:22.436Z,71.10
2022-07-27T13:10:52.292Z,70.90
2022-07-27T13:13:24.883Z,70.80
2022-07-27T13:15:52.389Z,71.30
2022-07-27T13:18:23.552Z,72.80
2022-07-27T13:20:52.342Z,71.90
2022-07-27T13:23:20.266Z,71.40
2022-07-27T13:25:47.367Z,71.50
2022-07-27T13:28:14.542Z,70.80
2022-07-27T13:30:41.779Z,71.00
2022-07-27T13:33:09.336Z,72.30
2022-07-27T13:35:36.563Z,72.70
2022-07-27T13:38:03.860Z,72.80
2022-07-27T13:40:31.087Z,71.90
2022-07-27T13:42:58.349Z,72.20
2022-07-27T13:45:25.583Z,71.40
2022-07-27T13:47:54.584Z,71.80
2022-07-27T13:50:22.258Z,71.50
2022-07-27T13:52:49.750Z,71.50
2022-07-27T13:55:18.120Z,72.40
2022-07-27T13:57:49.185Z,72.40
2022-07-27T14:00:16.850Z,72.50
2022-07-27T14:02:45.500Z,73.00
2022-07-27T14:05:14.555Z,72.80
2022-07-27T14:07:44.081Z,73.60
2022-07-27T14:10:31.169Z,72.80
2022-07-27T14:13:08.262Z,72.20
2022-07-27T14:15:52.957Z,71.10
2022-07-27T14:18:26.524Z,72.10
2022-07-27T14:20:58.209Z,72.60
2022-07-27T14:23:25.856Z,71.60
2022-07-27T14:25:54.357Z,71.10
2022-07-27T14:28:22.015Z,72.70
2022-07-27T14:30:49.856Z,73.20
2022-07-27T14:33:18.127Z,73.20
2022-07-27T14:35:46.649Z,73.90
2022-07-27T14:38:14.231Z,73.90
2022-07-27T14:40:54.007Z,73.60
2022-07-27T14:43:22.110Z,74.10
2022-07-27T14:45:49.600Z,73.80
2022-07-27T14:48:25.392Z,73.60
2022-07-27T14:51:04.284Z,72.90
2022-07-27T14:53:31.377Z,73.90
2022-07-27T14:55:58.530Z,73.80
2022-07-27T14:58:25.686Z,74.10
2022-07-27T15:00:53.077Z,74.10
2022-07-27T15:03:21.044Z,73.10
2022-07-27T15:05:49.434Z,73.30
2022-07-27T15:08:21.184Z,73.60
2022-07-27T15:10:49.252Z,73.90
2022-07-27T15:13:17.820Z,73.50
2022-07-27T15:15:48.738Z,73.50
2022-07-27T15:18:18.807Z,72.90
2022-07-27T15:20:47.089Z,73.60
2022-07-27T15:23:14.966Z,73.70
2022-07-27T15:25:42.859Z,73.90
2022-07-27T15:28:10.729Z,73.90
2022-07-27T15:30:38.794Z,73.70
2022-07-27T15:33:07.364Z,73.90
2022-07-27T15:35:35.283Z,74.50
2022-07-27T15:38:02.872Z,74.70
2022-07-27T15:40:41.446Z,74.80
2022-07-27T15:43:11.880Z,75.20
2022-07-27T15:45:45.760Z,75.20
2022-07-27T15:48:13.667Z,75.50
2022-07-27T15:50:43.968Z,75.70
2022-07-27T15:53:11.774Z,75.70
2022-07-27T15:55:39.099Z,76.00
2022-07-27T15:58:06.544Z,75.30
2022-07-27T16:00:39.540Z,75.60
2022-07-27T16:03:10.193Z,75.80
2022-07-27T16:05:38.664Z,76.10
2022-07-27T16:08:07.596Z,75.90
2022-07-27T16:10:34.750Z,76.00
2022-07-27T16:13:02.885Z,76.50
2022-07-27T16:15:50.644Z,76.40
2022-07-27T16:18:29.450Z,76.10
2022-07-27T16:20:57.084Z,76.10
2022-07-27T16:23:24.760Z,76.10
2022-07-27T16:26:10.554Z,75.80
2022-07-27T16:28:42.298Z,75.90
2022-07-27T16:31:13.681Z,75.80
2022-07-27T16:33:44.186Z,76.00
2022-07-27T16:36:12.671Z,76.20
2022-07-27T16:38:50.093Z,76.30
2022-07-27T16:41:19.930Z,76.70
2022-07-27T16:43:47.566Z,77.10
2022-07-27T16:46:14.917Z,77.00
2022-07-27T16:48:43.407Z,76.70
2022-07-27T16:51:12.898Z,76.70
2022-07-27T16:53:42.503Z,77.00
2022-07-27T16:56:10.852Z,76.80
2022-07-27T16:58:38.559Z,77.20
2022-07-27T17:01:06.412Z,77.50
2022-07-27T17:03:34.292Z,77.50
2022-07-27T17:06:06.134Z,77.70
2022-07-27T17:08:35.947Z,76.70
2022-07-27T17:11:05.376Z,77.00
2022-07-27T17:13:34.853Z,77.00
2022-07-27T17:16:06.789Z,77.20
2022-07-27T17:18:40.127Z,77.80
2022-07-27T17:21:15.181Z,78.20
2022-07-27T17:23:44.042Z,77.90
2022-07-27T17:26:12.662Z,78.00
2022-07-27T17:28:40.903Z,78.00
2022-07-27T17:31:10.928Z,78.10
2022-07-27T17:33:39.852Z,77.60
2022-07-27T17:36:14.014Z,77.60
2022-07-27T17:38:46.437Z,78.10
2022-07-27T17:41:18.083Z,78.00
2022-07-27T17:43:49.408Z,78.00
2022-07-27T17:46:17.651Z,77.40
2022-07-27T17:48:44.956Z,77.80
2022-07-27T17:51:12.605Z,78.70
2022-07-27T17:53:39.824Z,79.00
2022-07-27T17:56:08.308Z,79.30
2022-07-27T17:58:35.891Z,79.60
2022-07-27T18:01:04.561Z,79.90
2022-07-27T18:03:32.025Z,80.40
2022-07-27T18:06:00.325Z,80.40
2022-07-27T18:08:27.703Z,80.60
2022-07-27T18:10:54.889Z,81.40
2022-07-27T18:13:22.089Z,81.80
2022-07-27T18:15:50.764Z,81.50
2022-07-27T18:18:21.997Z,81.10
2022-07-27T18:20:52.437Z,80.90
2022-07-27T18:23:20.721Z,80.60
2022-07-27T18:25:48.333Z,80.60
2022-07-27T18:28:17.145Z,80.90
2022-07-27T18:30:46.123Z,81.50
2022-07-27T18:33:14.528Z,81.60
2022-07-27T18:35:46.106Z,81.70
2022-07-27T18:38:13.941Z,82.40
2022-07-27T18:40:43.492Z,81.90
2022-07-27T18:43:10.909Z,82.50
2022-07-27T18:45:39.160Z,82.70
2022-07-27T18:48:08.570Z,82.70
2022-07-27T18:50:40.145Z,83.00
2022-07-27T18:53:08.093Z,82.80
2022-07-27T18:55:35.573Z,83.50
2022-07-27T18:58:03.555Z,83.40
2022-07-27T19:00:31.099Z,84.80
2022-07-27T19:02:58.789Z,84.50
2022-07-27T19:05:32.562Z,85.50
2022-07-27T19:08:13.090Z,86.10
2022-07-27T19:10:42.294Z,86.40
2022-07-27T19:13:10.619Z,86.10
2022-07-27T19:15:37.926Z,87.20
2022-07-27T19:18:06.472Z,86.20
2022-07-27T19:20:33.785Z,86.50
2022-07-27T19:23:00.991Z,87.10
2022-07-27T19:25:30.402Z,87.20
2022-07-27T19:27:57.698Z,86.90
2022-07-27T19:30:24.950Z,87.30
2022-07-27T19:32:52.227Z,86.80
2022-07-27T19:35:19.417Z,86.80
2022-07-27T19:37:46.898Z,87.40
2022-07-27T19:40:42.995Z,87.50
2022-07-27T19:43:05.897Z,87.70
2022-07-27T19:45:33.845Z,88.20
2022-07-27T19:48:01.627Z,87.90
2022-07-27T19:50:28.942Z,87.90
2022-07-27T19:52:56.277Z,88.00
2022-07-27T19:55:24.264Z,88.40
2022-07-27T19:57:51.469Z,88.00
2022-07-27T20:00:18.902Z,88.40
2022-07-27T20:02:47.813Z,88.40
2022-07-27T20:05:15.096Z,89.40
2022-07-27T20:07:43.487Z,88.50
2022-07-27T20:10:11.263Z,88.80
2022-07-27T20:12:38.735Z,89.60
2022-07-27T20:15:06.842Z,89.20
2022-07-27T20:17:37.146Z,89.00
2022-07-27T20:20:20.031Z,89.20
2022-07-27T20:22:47.235Z,89.10
2022-07-27T20:25:15.342Z,89.20
2022-07-27T20:27:42.880Z,89.60
2022-07-27T20:30:11.064Z,89.50
2022-07-27T20:32:38.322Z,89.50
2022-07-27T20:35:06.432Z,90.00
2022-07-27T20:37:33.899Z,90.10
2022-07-27T20:40:01.437Z,90.00
2022-07-27T20:42:29.658Z,90.00
2022-07-27T20:44:57.081Z,90.40
2022-07-27T20:47:24.258Z,90.30
2022-07-27T20:49:51.460Z,90.20
2022-07-27T20:52:18.552Z,90.30
2022-07-27T20:54:45.827Z,90.50
2022-07-27T20:57:13.129Z,90.50
2022-07-27T20:59:40.295Z,90.50
2022-07-27T21:02:08.062Z,90.50
2022-07-27T21:04:35.588Z,90.60
2022-07-27T21:07:02.820Z,90.40
2022-07-27T21:09:31.564Z,90.40
2022-07-27T21:11:58.892Z,90.50
2022-07-27T21:14:26.083Z,90.50
2022-07-27T21:16:53.326Z,90.60
2022-07-27T21:19:22.540Z,90.80
2022-07-27T21:21:49.841Z,90.50
2022-07-27T21:24:18.338Z,90.70
2022-07-27T21:26:49.245Z,90.70
2022-07-27T21:29:17.135Z,91.10
2022-07-27T21:31:46.680Z,90.80
2022-07-27T21:34:17.059Z,90.90
2022-07-27T21:36:45.115Z,90.80
2022-07-27T21:39:12.921Z,91.00
2022-07-27T21:41:40.431Z,91.10
2022-07-27T21:44:07.671Z,91.00
2022-07-27T21:46:34.946Z,91.10
2022-07-27T21:49:02.585Z,90.90
2022-07-27T21:51:29.897Z,91.00
2022-07-27T21:53:57.038Z,91.40
2022-07-27T21:56:24.655Z,91.00
2022-07-27T21:58:51.969Z,91.00
2022-07-27T22:01:19.583Z,91.20
2022-07-27T22:03:47.083Z,91.00
2022-07-27T22:06:14.217Z,91.20
2022-07-27T22:08:41.328Z,91.10
2022-07-27T22:11:08.958Z,91.20
2022-07-27T22:13:36.425Z,91.20
2022-07-27T22:16:04.481Z,91.00
2022-07-27T22:18:32.078Z,91.10
2022-07-27T22:20:59.364Z,91.10
2022-07-27T22:23:26.484Z,91.10
2022-07-27T22:25:53.900Z,91.20
2022-07-27T22:28:25.523Z,91.20
2022-07-27T22:31:16.518Z,91.20
2022-07-27T22:33:44.233Z,91.10
2022-07-27T22:36:12.625Z,91.10
2022-07-27T22:38:40.162Z,91.30
2022-07-27T22:41:08.088Z,91.30
2022-07-27T22:43:35.486Z,91.20
2022-07-27T22:46:05.521Z,91.30
2022-07-27T22:48:33.068Z,91.30
2022-07-27T22:51:00.508Z,91.40
2022-07-27T22:53:27.630Z,91.40
2022-07-27T22:55:54.891Z,91.50
2022-07-27T22:58:22.549Z,91.60
2022-07-27T23:00:49.813Z,91.60
2022-07-27T23:03:17.196Z,91.60
2022-07-27T23:05:44.407Z,91.50
2022-07-27T23:08:11.547Z,91.60
2022-07-27T23:10:47.989Z,91.60
2022-07-27T23:13:16.820Z,91.80
2022-07-27T23:15:44.747Z,91.60
2022-07-27T23:18:12.616Z,91.90
2022-07-27T23:20:40.478Z,91.80
2022-07-27T23:23:15.844Z,91.90
2022-07-27T23:25:45.567Z,92.20
2022-07-27T23:28:15.168Z,92.00
2022-07-27T23:30:42.733Z,92.20
2022-07-27T23:33:10.074Z,92.20
2022-07-27T23:35:37.312Z,92.30
2022-07-27T23:38:04.619Z,92.30
2022-07-27T23:40:31.797Z,92.60
2022-07-27T23:42:59.071Z,92.40
2022-07-27T23:45:26.590Z,92.50
2022-07-27T23:47:53.806Z,92.50
2022-07-27T23:50:21.128Z,92.60
2022-07-27T23:52:48.298Z,92.70
2022-07-27T23:55:15.682Z,93.00
2022-07-27T23:57:42.747Z,93.00
